createdAt,value
2024-03-07T00:00:30.191Z,84.78
2024-03-07T00:02:57.041Z,84.73
2024-03-07T00:05:26.740Z,84.39
2024-03-07T00:07:54.598Z,84.73
2024-03-07T00:10:24.384Z,84.61
2024-03-07T00:12:51.292Z,84.36
2024-03-07T00:15:19.017Z,84.84
2024-03-07T00:17:46.016Z,84.59
2024-03-07T00:20:16.884Z,84.67
2024-03-07T00:22:44.417Z,84.67
2024-03-07T00:25:12.522Z,84.94
2024-03-07T00:27:42.414Z,84.52
2024-03-07T00:30:14.663Z,84.69
2024-03-07T00:32:41.659Z,85.04
2024-03-07T00:35:12.061Z,85.02
2024-03-07T00:37:38.868Z,85.17
2024-03-07T00:40:07.462Z,84.64
2024-03-07T00:42:35.177Z,84.54
2024-03-07T00:45:02.458Z,84.58
2024-03-07T00:47:29.250Z,84.55
2024-03-07T00:49:56.794Z,84.53
2024-03-07T00:52:23.490Z,84.68
2024-03-07T00:54:50.955Z,84.54
2024-03-07T00:57:17.669Z,84.74
2024-03-07T00:59:44.392Z,85.01
2024-03-07T01:02:11.199Z,84.78
2024-03-07T01:04:37.935Z,84.87
2024-03-07T01:07:05.015Z,85.11
2024-03-07T01:09:31.787Z,85.07
2024-03-07T01:12:01.017Z,84.57
2024-03-07T01:14:28.384Z,85.05
2024-03-07T01:16:55.322Z,85.00
2024-03-07T01:19:22.105Z,84.83
2024-03-07T01:21:49.480Z,84.70
2024-03-07T01:24:19.475Z,85.37
2024-03-07T01:26:46.328Z,85.12
2024-03-07T01:29:13.391Z,85.04
2024-03-07T01:31:40.129Z,85.50
2024-03-07T01:34:06.767Z,85.24
2024-03-07T01:36:33.418Z,85.04
2024-03-07T01:39:00.168Z,85.52
2024-03-07T01:41:26.887Z,84.85
2024-03-07T01:43:53.609Z,85.32
2024-03-07T01:46:21.035Z,84.90
2024-03-07T01:48:49.214Z,85.14
2024-03-07T01:51:16.561Z,85.33
2024-03-07T01:53:43.793Z,84.98
2024-03-07T01:56:11.052Z,84.86
2024-03-07T01:58:38.066Z,85.07
2024-03-07T02:01:04.841Z,85.32
2024-03-07T02:03:31.641Z,85.28
2024-03-07T02:05:58.441Z,85.58
2024-03-07T02:08:25.302Z,85.43
2024-03-07T02:10:52.044Z,84.98
2024-03-07T02:13:19.469Z,84.78
2024-03-07T02:15:46.418Z,85.35
2024-03-07T02:18:13.623Z,85.34
2024-03-07T02:20:45.328Z,84.76
2024-03-07T02:23:12.121Z,85.25
2024-03-07T02:25:39.053Z,85.31
2024-03-07T02:28:06.223Z,85.17
2024-03-07T02:30:33.444Z,84.72
2024-03-07T02:33:07.536Z,84.80
2024-03-07T02:35:36.544Z,84.82
2024-03-07T02:38:04.612Z,84.77
2024-03-07T02:40:31.761Z,84.61
2024-03-07T02:42:59.175Z,85.09
2024-03-07T02:45:26.351Z,85.02
2024-03-07T02:47:55.420Z,85.04
2024-03-07T02:50:25.804Z,85.22
2024-03-07T02:52:53.936Z,85.09
2024-03-07T02:55:21.617Z,85.24
2024-03-07T02:57:48.423Z,85.18
2024-03-07T03:00:22.246Z,84.86
2024-03-07T03:02:50.466Z,84.93
2024-03-07T03:05:17.708Z,84.59
2024-03-07T03:07:53.863Z,84.97
2024-03-07T03:10:27.356Z,85.05
2024-03-07T03:12:55.265Z,84.66
2024-03-07T03:15:22.281Z,84.84
2024-03-07T03:17:49.259Z,84.57
2024-03-07T03:20:25.673Z,84.50
2024-03-07T03:25:25.821Z,85.02
2024-03-07T03:27:52.800Z,84.70
2024-03-07T03:30:19.649Z,84.53
2024-03-07T03:32:47.996Z,84.95
2024-03-07T03:35:17.692Z,84.71
2024-03-07T03:37:44.489Z,85.12
2024-03-07T03:40:11.977Z,85.25
2024-03-07T03:42:39.289Z,85.62
2024-03-07T03:45:07.361Z,85.11
2024-03-07T03:47:38.857Z,85.93
2024-03-07T03:50:07.325Z,85.88
2024-03-07T03:52:36.176Z,86.00
2024-03-07T03:55:04.139Z,86.26
2024-03-07T03:57:31.842Z,85.92
2024-03-07T03:59:59.022Z,86.66
2024-03-07T04:02:26.368Z,86.87
2024-03-07T04:04:53.836Z,87.09
2024-03-07T04:07:20.598Z,87.28
2024-03-07T04:09:47.487Z,87.46
2024-03-07T04:12:14.986Z,87.27
2024-03-07T04:14:42.145Z,87.96
2024-03-07T04:17:09.712Z,87.77
2024-03-07T04:19:36.957Z,88.19
2024-03-07T04:22:04.527Z,88.14
2024-03-07T04:24:33.851Z,88.12
2024-03-07T04:27:01.722Z,88.27
2024-03-07T04:29:28.621Z,88.04
2024-03-07T04:31:55.355Z,87.68
2024-03-07T04:34:22.021Z,88.29
2024-03-07T04:36:49.075Z,87.95
2024-03-07T04:39:25.604Z,88.26
2024-03-07T04:41:56.973Z,88.08
2024-03-07T04:44:26.223Z,87.87
2024-03-07T04:46:56.744Z,87.75
2024-03-07T04:49:25.137Z,87.68
2024-03-07T04:51:55.356Z,88.18
2024-03-07T04:54:23.314Z,88.18
2024-03-07T04:56:52.559Z,88.01
2024-03-07T04:59:20.676Z,88.08
2024-03-07T05:01:48.340Z,88.04
2024-03-07T05:04:16.604Z,87.94
2024-03-07T05:06:44.485Z,87.70
2024-03-07T05:09:24.075Z,88.39
2024-03-07T05:11:54.166Z,87.86
2024-03-07T05:14:21.671Z,88.42
2024-03-07T05:17:06.308Z,88.22
2024-03-07T05:19:34.189Z,88.28
2024-03-07T05:22:01.443Z,87.87
2024-03-07T05:24:28.361Z,88.41
2024-03-07T05:26:55.423Z,88.22
2024-03-07T05:29:22.733Z,88.10
2024-03-07T05:31:49.576Z,87.83
2024-03-07T05:34:24.695Z,88.03
2024-03-07T05:36:52.392Z,87.94
2024-03-07T05:39:19.453Z,88.14
2024-03-07T05:41:47.101Z,88.02
2024-03-07T05:44:14.363Z,87.87
2024-03-07T05:46:47.032Z,87.81
2024-03-07T05:49:14.780Z,88.06
2024-03-07T05:51:46.476Z,87.75
2024-03-07T05:54:14.029Z,87.70
2024-03-07T05:56:41.792Z,88.07
2024-03-07T05:59:10.832Z,88.26
2024-03-07T06:01:38.042Z,87.34
2024-03-07T06:04:07.035Z,87.58
2024-03-07T06:06:35.010Z,87.98
2024-03-07T06:09:09.732Z,87.62
2024-03-07T06:11:39.946Z,87.40
2024-03-07T06:14:08.210Z,87.90
2024-03-07T06:16:40.277Z,88.19
2024-03-07T06:19:10.539Z,87.70
2024-03-07T06:21:40.692Z,88.23
2024-03-07T06:24:09.671Z,87.63
2024-03-07T06:26:38.850Z,88.09
2024-03-07T06:29:14.945Z,87.92
2024-03-07T06:31:44.825Z,87.51
2024-03-07T06:34:11.603Z,88.23
2024-03-07T06:36:38.852Z,88.17
2024-03-07T06:39:08.708Z,87.78
2024-03-07T06:41:35.711Z,88.02
2024-03-07T06:44:03.105Z,88.50
2024-03-07T06:46:30.587Z,87.92
2024-03-07T06:48:57.649Z,88.18
2024-03-07T06:51:26.169Z,87.92
2024-03-07T06:53:53.274Z,88.11
2024-03-07T06:56:20.316Z,87.98
2024-03-07T06:58:47.440Z,87.75
2024-03-07T07:01:16.823Z,88.01
2024-03-07T07:03:49.033Z,88.29
2024-03-07T07:06:16.369Z,88.00
2024-03-07T07:08:43.503Z,88.28
2024-03-07T07:11:12.992Z,88.25
2024-03-07T07:13:40.199Z,88.23
2024-03-07T07:16:07.245Z,88.28
2024-03-07T07:18:34.808Z,88.75
2024-03-07T07:21:04.487Z,88.26
2024-03-07T07:23:31.536Z,88.57
2024-03-07T07:25:58.675Z,88.26
2024-03-07T07:28:25.636Z,88.43
2024-03-07T07:30:52.821Z,88.52
2024-03-07T07:33:19.935Z,88.20
2024-03-07T07:35:46.913Z,88.15
2024-03-07T07:38:16.460Z,88.16
2024-03-07T07:40:44.350Z,87.92
2024-03-07T07:43:19.507Z,87.81
2024-03-07T07:45:52.381Z,88.01
2024-03-07T07:48:20.816Z,88.27
2024-03-07T07:50:52.129Z,87.90
2024-03-07T07:53:19.053Z,87.77
2024-03-07T07:55:47.763Z,87.46
2024-03-07T07:58:14.689Z,87.82
2024-03-07T08:00:44.579Z,87.32
2024-03-07T08:03:11.914Z,87.22
2024-03-07T08:05:39.502Z,87.47
2024-03-07T08:08:08.755Z,87.65
2024-03-07T08:10:37.348Z,87.29
2024-03-07T08:13:07.274Z,87.19
2024-03-07T08:15:34.440Z,86.98
2024-03-07T08:18:01.904Z,87.36
2024-03-07T08:20:30.278Z,87.03
2024-03-07T08:22:57.740Z,87.27
2024-03-07T08:25:26.388Z,87.24
2024-03-07T08:27:54.964Z,87.26
2024-03-07T08:30:22.078Z,86.90
2024-03-07T08:32:53.316Z,86.90
2024-03-07T08:35:20.646Z,86.88
2024-03-07T08:37:54.974Z,86.97
2024-03-07T08:40:28.065Z,86.95
2024-03-07T08:42:57.405Z,86.94
2024-03-07T08:45:25.234Z,87.03
2024-03-07T08:47:58.848Z,86.74
2024-03-07T08:50:28.395Z,86.77
2024-03-07T08:52:55.469Z,86.61
2024-03-07T08:55:24.442Z,86.55
2024-03-07T08:57:52.372Z,86.37
2024-03-07T09:00:27.524Z,86.44
2024-03-07T09:03:00.321Z,86.02
2024-03-07T09:05:28.780Z,86.10
2024-03-07T09:07:56.120Z,85.78
2024-03-07T09:10:22.973Z,85.94
2024-03-07T09:12:53.481Z,85.59
2024-03-07T09:15:23.432Z,85.57
2024-03-07T09:17:50.797Z,85.59
2024-03-07T09:20:17.863Z,85.96
2024-03-07T09:22:45.979Z,85.88
2024-03-07T09:25:14.690Z,85.64
2024-03-07T09:27:42.320Z,85.48
2024-03-07T09:30:13.393Z,85.10
2024-03-07T09:32:42.295Z,84.66
2024-03-07T09:35:13.497Z,84.64
2024-03-07T09:37:44.625Z,84.65
2024-03-07T09:40:16.612Z,84.67
2024-03-07T09:42:53.995Z,84.66
2024-03-07T09:45:22.346Z,84.60
2024-03-07T09:47:52.015Z,84.29
2024-03-07T09:50:20.873Z,83.57
2024-03-07T09:52:50.701Z,83.76
2024-03-07T09:55:26.564Z,83.92
2024-03-07T09:57:57.393Z,84.02
2024-03-07T10:00:29.667Z,83.56
2024-03-07T10:03:06.562Z,83.93
2024-03-07T10:05:33.876Z,83.81
2024-03-07T10:08:02.466Z,83.89
2024-03-07T10:10:31.501Z,83.44
2024-03-07T10:12:59.942Z,83.16
2024-03-07T10:15:34.390Z,83.12
2024-03-07T10:18:02.704Z,82.74
2024-03-07T10:20:30.443Z,82.64
2024-03-07T10:23:01.715Z,83.09
2024-03-07T10:25:30.026Z,82.70
2024-03-07T10:27:58.949Z,82.63
2024-03-07T10:30:26.672Z,82.53
2024-03-07T10:32:56.967Z,82.64
2024-03-07T10:35:27.261Z,82.58
2024-03-07T10:37:55.359Z,82.73
2024-03-07T10:40:23.952Z,82.58
2024-03-07T10:42:53.676Z,82.14
2024-03-07T10:45:24.911Z,82.67
2024-03-07T10:47:58.893Z,82.11
2024-03-07T10:50:49.898Z,82.22
2024-03-07T10:53:26.997Z,82.30
2024-03-07T10:56:00.348Z,82.33
2024-03-07T10:58:48.704Z,81.82
2024-03-07T11:01:16.065Z,82.17
2024-03-07T11:03:43.817Z,81.75
2024-03-07T11:06:12.961Z,81.71
2024-03-07T11:08:41.221Z,81.80
2024-03-07T11:11:08.261Z,81.66
2024-03-07T11:13:35.586Z,81.69
2024-03-07T11:16:04.338Z,82.09
2024-03-07T11:18:31.277Z,81.49
2024-03-07T11:20:59.361Z,81.10
2024-03-07T11:23:30.886Z,80.90
2024-03-07T11:26:09.167Z,81.09
2024-03-07T11:28:41.618Z,81.39
2024-03-07T11:31:28.325Z,81.15
2024-03-07T11:34:20.136Z,81.17
2024-03-07T11:36:48.157Z,81.31
2024-03-07T11:39:43.913Z,80.83
2024-03-07T11:42:36.670Z,80.51
2024-03-07T11:45:07.462Z,80.15
2024-03-07T11:47:40.029Z,80.38
2024-03-07T11:50:12.666Z,80.55
2024-03-07T11:52:43.240Z,79.92
2024-03-07T11:55:10.342Z,80.34
2024-03-07T11:57:37.521Z,80.60
2024-03-07T12:00:12.304Z,80.51
2024-03-07T12:02:40.434Z,80.86
2024-03-07T12:05:08.570Z,81.01
2024-03-07T12:07:35.474Z,80.69
2024-03-07T12:10:06.984Z,81.04
2024-03-07T12:12:34.592Z,80.77
2024-03-07T12:15:03.616Z,81.01
2024-03-07T12:17:33.170Z,80.83
2024-03-07T12:20:03.934Z,80.87
2024-03-07T12:22:31.953Z,81.56
2024-03-07T12:25:10.026Z,80.88
2024-03-07T12:27:39.875Z,81.04
2024-03-07T12:30:17.784Z,81.52
2024-03-07T12:32:51.172Z,81.60
2024-03-07T12:35:19.387Z,81.69
2024-03-07T12:37:47.557Z,81.88
2024-03-07T12:40:20.630Z,81.67
2024-03-07T12:42:49.300Z,82.02
2024-03-07T12:45:20.026Z,82.38
2024-03-07T12:47:55.399Z,82.31
2024-03-07T12:50:22.728Z,81.64
2024-03-07T12:52:53.452Z,82.03
2024-03-07T12:55:22.636Z,82.32
2024-03-07T12:57:51.297Z,81.69
2024-03-07T13:00:21.886Z,82.54
2024-03-07T13:02:49.957Z,82.07
2024-03-07T13:05:22.565Z,81.84
2024-03-07T13:07:50.083Z,82.06
2024-03-07T13:10:17.201Z,81.89
2024-03-07T13:12:46.880Z,81.90
2024-03-07T13:15:14.074Z,82.01
2024-03-07T13:17:41.297Z,81.58
2024-03-07T13:20:15.296Z,82.07
2024-03-07T13:22:48.307Z,81.27
2024-03-07T13:25:20.862Z,81.55
2024-03-07T13:27:58.559Z,81.67
2024-03-07T13:30:28.631Z,82.13
2024-03-07T13:33:00.316Z,82.17
2024-03-07T13:35:28.624Z,82.19
2024-03-07T13:37:56.798Z,82.04
2024-03-07T13:40:27.744Z,82.03
2024-03-07T13:42:59.264Z,82.32
2024-03-07T13:45:32.833Z,81.81
2024-03-07T13:48:01.046Z,81.92
2024-03-07T13:50:47.305Z,81.53
2024-03-07T13:53:30.324Z,81.28
2024-03-07T13:56:25.240Z,80.84
2024-03-07T13:59:10.793Z,80.89
2024-03-07T14:01:55.609Z,81.01
2024-03-07T14:04:53.756Z,80.33
2024-03-07T14:07:51.794Z,80.71
2024-03-07T14:10:57.402Z,80.75
2024-03-07T14:13:55.463Z,80.43
2024-03-07T14:16:59.702Z,79.14
2024-03-07T14:20:30.908Z,79.79
2024-03-07T14:23:34.907Z,78.90
2024-03-07T14:26:07.598Z,79.08
2024-03-07T14:28:53.703Z,78.37
2024-03-07T14:31:23.706Z,78.48
2024-03-07T14:34:07.504Z,77.38
2024-03-07T14:36:40.407Z,76.42
2024-03-07T14:39:07.912Z,77.06
2024-03-07T14:42:11.072Z,76.98
2024-03-07T14:44:43.986Z,76.79
2024-03-07T14:47:15.619Z,76.80
2024-03-07T14:49:42.952Z,77.18
2024-03-07T14:52:12.572Z,76.03
2024-03-07T14:54:39.656Z,76.17
2024-03-07T14:57:06.612Z,75.55
2024-03-07T14:59:33.751Z,75.64
2024-03-07T15:02:03.879Z,75.86
2024-03-07T15:04:34.096Z,75.50
2024-03-07T15:07:03.822Z,75.81
2024-03-07T15:09:31.571Z,75.62
2024-03-07T15:11:59.019Z,75.67
2024-03-07T15:14:33.415Z,75.08
2024-03-07T15:17:07.772Z,75.12
2024-03-07T15:19:36.255Z,74.94
2024-03-07T15:22:04.524Z,73.85
2024-03-07T15:24:31.766Z,74.62
2024-03-07T15:26:58.945Z,75.89
2024-03-07T15:29:25.810Z,75.78
2024-03-07T15:31:52.549Z,74.49
2024-03-07T15:34:19.234Z,74.96
2024-03-07T15:36:46.746Z,75.35
2024-03-07T15:39:27.787Z,75.38
2024-03-07T15:41:55.976Z,75.25
2024-03-07T15:44:22.956Z,74.97
2024-03-07T15:46:50.108Z,75.42
2024-03-07T15:49:18.441Z,74.97
2024-03-07T15:51:47.052Z,74.71
2024-03-07T15:54:18.691Z,74.02
2024-03-07T15:56:46.164Z,74.24
2024-03-07T15:59:12.842Z,74.88
2024-03-07T16:01:39.655Z,73.64
2024-03-07T16:04:08.241Z,72.50
2024-03-07T16:06:34.967Z,72.91
2024-03-07T16:09:01.732Z,72.05
2024-03-07T16:11:28.536Z,72.98
2024-03-07T16:13:55.301Z,72.68
2024-03-07T16:16:22.026Z,71.96
2024-03-07T16:18:48.717Z,73.13
2024-03-07T16:21:15.625Z,72.47
2024-03-07T16:23:42.714Z,72.84
2024-03-07T16:26:09.558Z,73.67
2024-03-07T16:28:36.249Z,74.42
2024-03-07T16:31:06.304Z,74.55
2024-03-07T16:33:34.967Z,73.86
2024-03-07T16:36:02.055Z,73.57
2024-03-07T16:38:29.172Z,74.58
2024-03-07T16:40:55.940Z,72.92
2024-03-07T16:43:26.044Z,73.31
2024-03-07T16:45:54.615Z,73.54
2024-03-07T16:48:21.851Z,73.13
2024-03-07T16:50:48.896Z,74.54
2024-03-07T16:53:17.622Z,73.60
2024-03-07T16:55:48.625Z,73.91
2024-03-07T16:58:18.091Z,74.13
2024-03-07T17:00:45.294Z,74.46
2024-03-07T17:03:14.566Z,75.05
2024-03-07T17:05:44.008Z,75.28
2024-03-07T17:08:17.611Z,74.71
2024-03-07T17:10:46.061Z,74.91
2024-03-07T17:13:14.967Z,74.68
2024-03-07T17:15:46.919Z,74.88
2024-03-07T17:18:17.276Z,74.82
2024-03-07T17:20:47.113Z,74.58
2024-03-07T17:23:16.976Z,75.17
2024-03-07T17:25:44.754Z,75.18
2024-03-07T17:28:11.515Z,75.41
2024-03-07T17:30:40.197Z,75.93
2024-03-07T17:33:08.553Z,76.21
2024-03-07T17:35:38.189Z,75.92
2024-03-07T17:38:05.278Z,75.63
2024-03-07T17:40:34.697Z,76.41
2024-03-07T17:43:04.678Z,75.53
2024-03-07T17:45:37.579Z,75.57
2024-03-07T17:48:07.775Z,75.46
2024-03-07T17:50:36.729Z,75.84
2024-03-07T17:53:09.678Z,75.90
2024-03-07T17:55:37.968Z,75.68
2024-03-07T17:58:05.248Z,76.28
2024-03-07T18:00:33.611Z,75.60
2024-03-07T18:03:09.597Z,75.72
2024-03-07T18:05:39.573Z,76.44
2024-03-07T18:08:27.435Z,76.31
2024-03-07T18:11:00.702Z,76.82
2024-03-07T18:13:27.676Z,76.62
2024-03-07T18:15:54.437Z,76.65
2024-03-07T18:18:25.366Z,76.78
2024-03-07T18:20:52.814Z,77.18
2024-03-07T18:23:19.834Z,77.44
2024-03-07T18:25:48.644Z,78.04
2024-03-07T18:28:21.413Z,78.27
2024-03-07T18:30:49.180Z,78.60
2024-03-07T18:33:16.088Z,77.96
2024-03-07T18:35:44.003Z,78.09
2024-03-07T18:38:10.996Z,78.14
2024-03-07T18:40:37.774Z,79.57
2024-03-07T18:43:09.092Z,78.94
2024-03-07T18:45:37.305Z,79.13
2024-03-07T18:48:09.146Z,79.84
2024-03-07T18:50:46.658Z,79.70
2024-03-07T18:53:16.535Z,79.28
2024-03-07T18:55:48.333Z,79.74
2024-03-07T18:58:17.112Z,79.98
2024-03-07T19:00:49.806Z,79.51
2024-03-07T19:03:19.817Z,79.53
2024-03-07T19:05:47.788Z,79.68
2024-03-07T19:08:21.103Z,79.84
2024-03-07T19:10:48.968Z,79.49
2024-03-07T19:13:17.684Z,79.45
2024-03-07T19:15:45.041Z,79.17
2024-03-07T19:18:14.536Z,79.61
2024-03-07T19:20:42.773Z,79.31
2024-03-07T19:23:11.850Z,79.01
2024-03-07T19:25:42.318Z,79.09
2024-03-07T19:28:16.507Z,79.01
2024-03-07T19:30:49.044Z,78.79
2024-03-07T19:33:16.833Z,78.31
2024-03-07T19:35:44.961Z,79.10
2024-03-07T19:38:11.741Z,78.92
2024-03-07T19:40:38.839Z,79.10
2024-03-07T19:43:07.862Z,78.29
2024-03-07T19:45:38.671Z,78.96
2024-03-07T19:48:06.145Z,78.67
2024-03-07T19:50:33.439Z,78.80
2024-03-07T19:53:03.048Z,78.42
2024-03-07T19:55:32.558Z,78.79
2024-03-07T19:58:00.041Z,78.74
2024-03-07T20:00:32.423Z,78.28
2024-03-07T20:03:04.579Z,78.13
2024-03-07T20:05:33.469Z,78.63
2024-03-07T20:08:00.584Z,78.94
2024-03-07T20:10:30.520Z,79.15
2024-03-07T20:12:58.190Z,79.07
2024-03-07T20:15:25.712Z,78.68
2024-03-07T20:17:54.986Z,78.61
2024-03-07T20:20:30.765Z,78.65
2024-03-07T20:22:58.323Z,78.07
2024-03-07T20:25:29.140Z,78.53
2024-03-07T20:27:59.236Z,78.82
2024-03-07T20:30:33.465Z,78.78
2024-03-07T20:33:00.858Z,78.70
2024-03-07T20:35:27.943Z,78.65
2024-03-07T20:37:55.993Z,78.35
2024-03-07T20:40:25.849Z,78.49
2024-03-07T20:42:55.350Z,78.88
2024-03-07T20:45:23.004Z,79.25
2024-03-07T20:47:50.600Z,79.36
2024-03-07T20:50:21.412Z,79.13
2024-03-07T20:52:55.538Z,78.52
2024-03-07T20:55:27.805Z,78.75
2024-03-07T20:57:57.277Z,78.73
2024-03-07T21:00:26.098Z,79.07
2024-03-07T21:02:54.172Z,78.29
2024-03-07T21:05:21.995Z,78.69
2024-03-07T21:07:52.044Z,78.38
2024-03-07T21:10:21.191Z,78.23
2024-03-07T21:12:48.444Z,78.51
2024-03-07T21:15:16.565Z,78.08
2024-03-07T21:17:43.892Z,78.50
2024-03-07T21:20:12.833Z,79.08
2024-03-07T21:22:44.542Z,78.62
2024-03-07T21:25:18.842Z,78.74
2024-03-07T21:27:47.665Z,78.53
2024-03-07T21:30:17.448Z,78.58
2024-03-07T21:32:45.860Z,78.86
2024-03-07T21:35:13.198Z,78.47
2024-03-07T21:37:43.997Z,78.65
2024-03-07T21:40:17.151Z,78.06
2024-03-07T21:42:44.782Z,78.17
2024-03-07T21:45:17.507Z,77.83
2024-03-07T21:47:48.186Z,78.05
2024-03-07T21:50:16.177Z,77.48
2024-03-07T21:52:49.381Z,77.54
2024-03-07T21:55:21.879Z,77.70
2024-03-07T21:57:55.249Z,77.60
2024-03-07T22:00:25.656Z,77.67
2024-03-07T22:02:59.551Z,77.61
2024-03-07T22:05:34.216Z,76.65
2024-03-07T22:08:01.986Z,76.32
2024-03-07T22:10:30.690Z,76.15
2024-03-07T22:12:58.013Z,76.37
2024-03-07T22:15:24.953Z,75.75
2024-03-07T22:17:54.350Z,76.29
2024-03-07T22:20:24.501Z,76.24
2024-03-07T22:22:53.097Z,75.48
2024-03-07T22:25:22.892Z,75.69
2024-03-07T22:27:50.490Z,75.32
2024-03-07T22:30:22.167Z,74.82
2024-03-07T22:32:49.649Z,72.98
2024-03-07T22:35:16.458Z,72.72
2024-03-07T22:37:52.634Z,72.86
2024-03-07T22:40:24.752Z,72.20
2024-03-07T22:42:52.382Z,72.71
2024-03-07T22:45:19.360Z,71.86
2024-03-07T22:47:47.244Z,71.91
2024-03-07T22:50:26.220Z,72.19
2024-03-07T22:52:57.240Z,72.70
2024-03-07T22:55:24.398Z,73.23
2024-03-07T22:57:51.607Z,72.97
2024-03-07T23:00:29.548Z,73.19
2024-03-07T23:03:01.275Z,73.82
2024-03-07T23:05:29.958Z,73.97
2024-03-07T23:07:58.233Z,73.33
2024-03-07T23:10:25.229Z,74.36
2024-03-07T23:12:53.782Z,73.71
2024-03-07T23:15:25.441Z,74.11
2024-03-07T23:17:53.285Z,74.41
2024-03-07T23:20:23.088Z,74.67
2024-03-07T23:22:56.300Z,75.00
2024-03-07T23:25:24.157Z,75.10
2024-03-07T23:27:55.246Z,75.35
2024-03-07T23:30:23.655Z,75.62
2024-03-07T23:32:52.250Z,75.77
2024-03-07T23:35:19.768Z,76.05
2024-03-07T23:37:46.625Z,75.98
2024-03-07T23:40:14.805Z,76.41
2024-03-07T23:42:46.163Z,76.21
2024-03-07T23:45:14.128Z,76.68
2024-03-07T23:47:42.852Z,76.39
2024-03-07T23:50:14.215Z,76.59
2024-03-07T23:52:42.820Z,76.55
2024-03-07T23:55:12.400Z,76.27
2024-03-07T23:57:41.014Z,76.28
